.
WxDataArchive / Data Records for 2011-09-30
2011-09-29 September 2011 2011-10-01

Data Records for Friday, 30 September 2011

Time	Temp	Chill	HIndex	Humid	Dewpt	 Wind 	HiWind	WindDir	Rain 	Barom 
-----	----	-----	------	-----	-----	------	------	-------	-----	----- 
00:00	55.7	55.7	55.7	73	47.2	3	7	270	0.00	29.579 
00:05	55.7	55.7	55.7	73	47.2	4	9	270	0.00	29.579 
00:10	55.7	55.7	55.7	73	47.2	3	10	270	0.00	29.579 
00:15	55.7	55.7	55.7	73	47.2	3	7	270	0.00	29.575 
00:20	55.6	55.6	55.6	73	47.1	1	5	292	0.00	29.575 
00:25	55.6	55.6	55.6	74	47.4	1	4	270	0.00	29.575 
00:30	55.4	55.4	55.4	74	47.3	1	5	270	0.00	29.575 
00:35	55.4	55.4	55.4	74	47.3	1	5	270	0.00	29.575 
00:40	55.3	55.3	55.3	74	47.2	3	6	270	0.00	29.575 
00:45	55.3	55.3	55.3	75	47.5	2	5	270	0.00	29.572 
00:50	55.3	55.3	55.3	76	47.9	3	10	270	0.00	29.572 
00:55	55.1	55.1	55.1	77	48.0	1	5	270	0.00	29.572 
01:00	55.1	55.1	55.1	77	48.0	0	3	270	0.00	29.564 
01:05	55.0	55.0	55.0	77	47.9	1	5	270	0.00	29.564 
01:10	55.0	55.0	55.0	77	47.9	1	5	270	0.00	29.564 
01:15	55.0	55.0	55.0	77	47.9	1	4	292	0.00	29.563 
01:20	55.0	55.0	55.0	77	47.9	1	8	270	0.00	29.563 
01:25	55.1	55.1	55.1	77	48.0	2	6	270	0.00	29.563 
01:30	55.1	55.1	55.1	77	48.0	1	4	292	0.00	29.562 
01:35	55.3	55.3	55.3	77	48.2	1	5	248	0.00	29.562 
01:40	55.3	55.3	55.3	77	48.2	1	5	270	0.00	29.562 
01:45	55.1	55.1	55.1	79	48.7	1	5	270	0.00	29.564 
01:50	54.8	54.8	54.8	80	48.7	3	9	270	0.00	29.564 
01:55	54.5	54.5	54.5	81	48.8	3	6	270	0.00	29.564 
02:00	54.4	54.4	54.4	82	49.0	2	6	270	0.00	29.567 
02:05	54.4	54.4	54.4	83	49.3	2	6	270	0.00	29.567 
02:10	54.1	54.1	54.1	84	49.4	3	6	270	0.00	29.567 
02:15	53.8	53.8	53.8	86	49.7	2	7	270	0.00	29.574 
02:20	53.6	53.6	53.6	86	49.5	2	6	270	0.00	29.574 
02:25	53.5	53.5	53.5	87	49.7	1	5	270	0.00	29.574 
02:30	53.5	53.5	53.5	87	49.7	2	7	270	0.00	29.577 
02:35	53.5	53.5	53.5	87	49.7	2	6	270	0.00	29.577 
02:40	53.3	53.3	53.3	87	49.5	2	9	270	0.00	29.577 
02:45	53.3	53.3	53.3	88	49.8	2	6	270	0.00	29.579 
02:50	53.2	53.2	53.2	88	49.7	2	6	270	0.00	29.579 
02:55	53.1	53.1	53.1	89	49.9	3	9	270	0.00	29.579 
03:00	52.8	52.8	52.8	89	49.6	3	7	270	0.00	29.580 
03:05	52.8	52.8	52.8	89	49.6	3	10	270	0.00	29.580 
03:10	52.8	52.8	52.8	89	49.6	2	5	270	0.00	29.580 
03:15	52.8	52.8	52.8	89	49.6	2	6	270	0.00	29.583 
03:20	52.8	52.8	52.8	89	49.6	2	5	270	0.00	29.583 
03:25	52.6	52.6	52.6	90	49.7	2	6	270	0.00	29.583 
03:30	52.3	52.3	52.3	90	49.5	2	5	270	0.00	29.584 
03:35	52.2	52.2	52.2	91	49.7	2	5	270	0.00	29.584 
03:40	52.0	52.0	52.0	91	49.5	3	6	270	0.00	29.584 
03:45	52.0	52.0	52.0	92	49.7	3	7	270	0.00	29.593 
03:50	52.0	52.0	52.0	92	49.7	3	6	292	0.00	29.593 
03:55	52.0	52.0	52.0	92	49.7	2	5	270	0.00	29.593 
04:00	52.0	52.0	52.0	92	49.7	2	4	270	0.00	29.594 
04:05	51.9	51.9	51.9	91	49.4	3	7	270	0.00	29.594 
04:10	51.9	51.9	51.9	91	49.4	3	7	270	0.00	29.594 
04:15	51.7	51.7	51.7	91	49.2	3	7	270	0.00	29.598 
04:20	51.7	51.7	51.7	91	49.2	2	5	248	0.00	29.598 
04:25	51.6	51.6	51.6	91	49.1	2	6	270	0.00	29.598 
04:30	51.6	51.6	51.6	91	49.1	3	6	270	0.00	29.600 
04:35	51.6	51.6	51.6	91	49.1	2	4	270	0.00	29.600 
04:40	51.4	51.4	51.4	91	48.9	2	6	270	0.00	29.600 
04:45	51.3	51.3	51.3	92	49.1	2	5	270	0.00	29.600 
04:50	51.1	51.1	51.1	92	48.9	2	6	270	0.00	29.600 
04:55	51.1	51.1	51.1	92	48.9	2	6	292	0.00	29.600 
05:00	51.0	51.0	51.0	92	48.8	1	5	270	0.00	29.596 
05:05	51.0	51.0	51.0	92	48.8	2	4	270	0.00	29.596 
05:10	51.0	51.0	51.0	92	48.8	3	7	270	0.00	29.596 
05:15	51.0	51.0	51.0	92	48.8	2	6	248	0.00	29.590 
05:20	51.0	51.0	51.0	92	48.8	2	5	248	0.00	29.590 
05:25	51.0	51.0	51.0	92	48.8	2	6	270	0.00	29.590 
05:30	50.8	50.8	50.8	92	48.6	2	5	248	0.01	29.588 
05:35	50.8	50.8	50.8	92	48.6	2	6	270	0.00	29.588 
05:40	50.7	50.7	50.7	92	48.5	2	7	270	0.00	29.588 
05:45	50.5	50.5	50.5	92	48.3	2	8	270	0.00	29.587 
05:50	50.5	50.5	50.5	92	48.3	3	9	270	0.00	29.587 
05:55	50.4	50.4	50.4	93	48.5	3	6	270	0.00	29.587 
06:00	50.4	50.4	50.4	93	48.5	3	6	248	0.01	29.588 
06:05	50.4	50.4	50.4	93	48.5	3	7	270	0.00	29.588 
06:10	50.4	50.4	50.4	93	48.5	3	7	270	0.00	29.588 
06:15	50.2	50.2	50.2	93	48.3	4	9	270	0.00	29.594 
06:20	50.4	50.4	50.4	94	48.7	3	10	270	0.00	29.594 
06:25	50.4	50.4	50.4	94	48.7	3	7	248	0.01	29.594 
06:30	50.4	50.4	50.4	94	48.7	3	9	292	0.00	29.599 
06:35	50.5	50.5	50.5	94	48.8	3	7	248	0.00	29.599 
06:40	50.7	50.7	50.7	94	49.0	4	7	270	0.00	29.599 
06:45	51.0	51.0	51.0	95	49.6	4	7	270	0.00	29.615 
06:50	51.1	51.1	51.1	95	49.7	4	7	270	0.00	29.615 
06:55	51.4	51.4	51.4	95	50.0	4	9	292	0.00	29.615 
07:00	51.6	51.6	51.6	95	50.2	3	6	270	0.00	29.620 
07:05	51.9	51.9	51.9	95	50.5	3	7	270	0.00	29.620 
07:10	52.0	52.0	52.0	95	50.6	2	6	270	0.00	29.620 
07:15	52.2	52.2	52.2	94	50.5	2	5	270	0.00	29.631 
07:20	52.3	52.3	52.3	94	50.6	2	5	270	0.00	29.631 
07:25	52.5	52.5	52.5	94	50.8	2	4	270	0.00	29.631 
07:30	52.6	52.6	52.6	94	50.9	3	6	292	0.00	29.640 
07:35	52.8	52.8	52.8	94	51.1	2	4	315	0.00	29.640 
07:40	52.8	52.8	52.8	93	50.8	2	4	315	0.00	29.640 
07:45	52.8	52.8	52.8	93	50.8	2	5	270	0.00	29.648 
07:50	52.9	52.9	52.9	93	50.9	2	4	315	0.00	29.648 
07:55	52.9	52.9	52.9	93	50.9	2	4	270	0.00	29.648 
08:00	53.1	53.1	53.1	93	51.1	2	4	292	0.00	29.657 
08:05	53.1	53.1	53.1	93	51.1	2	5	270	0.00	29.657 
08:10	53.2	53.2	53.2	93	51.2	3	5	270	0.00	29.657 
08:15	53.2	53.2	53.2	92	50.9	2	5	292	0.00	29.668 
08:20	53.2	53.2	53.2	92	50.9	2	7	270	0.00	29.668 
08:25	53.2	53.2	53.2	92	50.9	2	4	292	0.00	29.668 
08:30	53.1	53.1	53.1	92	50.8	3	6	270	0.00	29.678 
08:35	53.1	53.1	53.1	93	51.1	3	6	270	0.00	29.678 
08:40	52.9	52.9	52.9	93	50.9	3	8	270	0.00	29.678 
08:45	52.8	52.8	52.8	92	50.5	3	8	292	0.00	29.683 
08:50	52.6	52.6	52.6	92	50.3	4	9	292	0.00	29.683 
08:55	52.8	52.8	52.8	91	50.2	4	9	270	0.00	29.683 
09:00	52.6	52.6	52.6	91	50.0	4	9	315	0.00	29.700 
09:05	52.5	52.5	52.5	90	49.7	4	10	292	0.00	29.700 
09:10	52.3	52.3	52.3	89	49.2	3	9	292	0.00	29.700 
09:15	52.2	52.2	52.2	89	49.1	4	10	315	0.01	29.716 
09:20	52.0	52.0	52.0	90	49.2	3	8	292	0.00	29.716 
09:25	51.7	51.7	51.7	90	48.9	3	10	292	0.00	29.716 
09:30	51.4	51.4	51.4	91	48.9	3	7	338	0.00	29.729 
09:35	51.4	51.4	51.4	91	48.9	4	8	292	0.00	29.729 
09:40	51.3	51.3	51.3	90	48.5	4	8	315	0.00	29.729 
09:45	51.1	51.1	51.1	89	48.0	4	11	292	0.00	29.736 
09:50	51.1	51.1	51.1	88	47.7	3	7	292	0.00	29.736 
09:55	51.1	51.1	51.1	88	47.7	4	13	292	0.00	29.736 
10:00	51.3	51.3	51.3	87	47.6	3	10	315	0.00	29.748 
10:05	51.3	51.3	51.3	86	47.3	3	9	315	0.00	29.748 
10:10	51.3	51.3	51.3	84	46.6	4	7	292	0.00	29.748 
10:15	51.3	51.3	51.3	84	46.6	3	7	292	0.00	29.763 
10:20	51.4	51.4	51.4	84	46.7	4	9	315	0.00	29.763 
10:25	51.4	51.4	51.4	83	46.4	3	9	292	0.00	29.763 
10:30	51.4	51.4	51.4	83	46.4	2	11	292	0.00	29.772 
10:35	51.7	51.7	51.7	82	46.4	3	10	292	0.00	29.772 
10:40	52.3	52.3	52.3	81	46.6	3	10	315	0.00	29.772 
10:45	52.3	52.3	52.3	79	46.0	3	6	315	0.00	29.779 
10:50	52.5	52.5	52.5	78	45.8	3	7	292	0.00	29.779 
10:55	52.5	52.5	52.5	78	45.8	3	6	315	0.00	29.779 
11:00	52.5	52.5	52.5	79	46.2	3	7	292	0.00	29.789 
11:05	52.3	52.3	52.3	78	45.6	2	7	292	0.00	29.789 
11:10	52.2	52.2	52.2	77	45.2	3	8	292	0.00	29.789 
11:15	52.2	52.2	52.2	77	45.2	3	9	315	0.00	29.794 
11:20	52.2	52.2	52.2	75	44.5	3	11	315	0.00	29.794 
11:25	52.3	52.3	52.3	76	45.0	2	10	292	0.00	29.794 
11:30	52.3	52.3	52.3	76	45.0	2	7	292	0.00	29.805 
11:35	52.3	52.3	52.3	76	45.0	3	9	338	0.00	29.805 
11:40	52.2	52.2	52.2	75	44.5	2	6	292	0.00	29.805 
11:45	52.2	52.2	52.2	74	44.2	2	6	315	0.00	29.815 
11:50	52.2	52.2	52.2	74	44.2	3	8	315	0.00	29.815 
11:55	52.2	52.2	52.2	75	44.5	3	6	292	0.00	29.815 
12:00	51.9	51.9	51.9	73	43.5	5	14	292	0.00	29.821 
12:05	51.6	51.6	51.6	75	43.9	4	14	292	0.00	29.821 
12:10	51.3	51.3	51.3	75	43.6	4	12	315	0.00	29.821 
12:15	51.6	51.6	51.6	74	43.6	4	10	315	0.00	29.831 
12:20	51.9	51.9	51.9	73	43.5	3	6	338	0.00	29.831 
12:25	52.0	52.0	52.0	73	43.6	3	6	315	0.00	29.831 
12:30	52.2	52.2	52.2	72	43.4	3	9	338	0.00	29.843 
12:35	52.3	52.3	52.3	72	43.5	3	7	338	0.00	29.843 
12:40	52.2	52.2	52.2	71	43.1	4	12	292	0.00	29.843 
12:45	52.0	52.0	52.0	72	43.3	3	10	315	0.00	29.846 
12:50	52.0	52.0	52.0	72	43.3	2	7	338	0.00	29.846 
12:55	51.9	51.9	51.9	72	43.2	3	9	292	0.00	29.846 
13:00	51.9	51.9	51.9	72	43.2	5	9	292	0.00	29.856 
13:05	52.3	52.3	52.3	72	43.5	2	6	270	0.00	29.856 
13:10	52.5	52.5	52.5	70	43.0	3	7	292	0.00	29.856 
13:15	52.5	52.5	52.5	71	43.4	2	7	292	0.00	29.864 
13:20	52.2	52.2	52.2	71	43.1	2	7	315	0.00	29.864 
13:25	52.0	52.0	52.0	71	42.9	2	5	315	0.00	29.864 
13:30	52.2	52.2	52.2	70	42.7	2	5	292	0.00	29.874 
13:35	52.2	52.2	52.2	69	42.3	4	9	292	0.00	29.874 
13:40	52.6	52.6	52.6	68	42.3	3	9	315	0.00	29.874 
13:45	52.9	52.9	52.9	68	42.6	2	5	292	0.00	29.874 
13:50	53.2	53.2	53.2	65	41.7	3	7	315	0.00	29.874 
13:55	54.1	54.1	54.1	65	42.6	3	8	292	0.00	29.874 
14:00	54.5	54.5	54.5	62	41.7	3	9	315	0.00	29.873 
14:05	54.4	54.4	54.4	63	42.1	3	9	270	0.00	29.873 
14:10	54.1	54.1	54.1	63	41.8	3	11	292	0.00	29.873 
14:15	53.9	53.9	53.9	63	41.6	3	9	292	0.00	29.876 
14:20	53.8	53.8	53.8	63	41.5	4	10	315	0.00	29.876 
14:25	53.6	53.6	53.6	63	41.3	4	9	315	0.00	29.876 
14:30	53.8	53.8	53.8	64	41.9	2	4	315	0.00	29.879 
14:35	53.9	53.9	53.9	65	42.4	2	7	270	0.00	29.879 
14:40	54.1	54.1	54.1	62	41.4	2	6	315	0.00	29.879 
14:45	54.2	54.2	54.2	62	41.5	3	10	292	0.00	29.881 
14:50	54.5	54.5	54.5	61	41.3	3	10	292	0.00	29.881 
14:55	54.7	54.7	54.7	61	41.5	3	9	292	0.00	29.881 
15:00	54.4	54.4	54.4	61	41.2	2	6	315	0.00	29.885 
15:05	54.4	54.4	54.4	59	40.4	3	5	338	0.00	29.885 
15:10	54.5	54.5	54.5	58	40.0	3	7	292	0.00	29.885 
15:15	54.8	54.8	54.8	58	40.3	2	8	292	0.00	29.889 
15:20	55.0	55.0	55.0	58	40.5	4	8	292	0.00	29.889 
15:25	54.8	54.8	54.8	58	40.3	2	5	338	0.00	29.889 
15:30	54.5	54.5	54.5	58	40.0	4	14	270	0.00	29.894 
15:35	54.2	54.2	54.2	61	41.0	3	7	315	0.00	29.894 
15:40	54.4	54.4	54.4	62	41.7	3	6	315	0.00	29.894 
15:45	54.8	54.8	54.8	60	41.2	3	9	292	0.00	29.897 
15:50	55.1	55.1	55.1	58	40.6	4	10	292	0.00	29.897 
15:55	55.1	55.1	55.1	60	41.5	3	7	292	0.00	29.897 
16:00	54.7	54.7	54.7	60	41.1	5	11	292	0.00	29.899 
16:05	54.2	54.2	54.2	60	40.6	3	7	270	0.00	29.899 
16:10	54.1	54.1	54.1	60	40.5	3	9	270	0.00	29.899 
16:15	53.9	53.9	53.9	60	40.3	4	10	292	0.00	29.906 
16:20	54.1	54.1	54.1	61	41.0	3	10	292	0.00	29.906 
16:25	54.1	54.1	54.1	60	40.5	4	9	292	0.00	29.906 
16:30	54.2	54.2	54.2	60	40.6	2	5	292	0.00	29.909 
16:35	54.4	54.4	54.4	59	40.4	2	5	315	0.00	29.909 
16:40	54.4	54.4	54.4	58	39.9	4	12	292	0.00	29.909 
16:45	53.8	53.8	53.8	60	40.2	4	12	315	0.00	29.918 
16:50	53.3	53.3	53.3	61	40.2	5	10	315	0.00	29.918 
16:55	53.1	53.1	53.1	62	40.4	4	9	315	0.00	29.918 
17:00	53.3	53.3	53.3	63	41.0	5	13	315	0.00	29.922 
17:05	53.2	53.2	53.2	63	40.9	4	9	292	0.00	29.922 
17:10	53.3	53.3	53.3	64	41.4	3	6	292	0.00	29.922 
17:15	53.5	53.5	53.5	64	41.6	2	6	292	0.00	29.925 
17:20	53.5	53.5	53.5	62	40.8	4	11	292	0.00	29.925 
17:25	53.6	53.6	53.6	62	40.9	3	6	292	0.00	29.925 
17:30	53.6	53.6	53.6	62	40.9	3	7	270	0.00	29.925 
17:35	53.9	53.9	53.9	62	41.2	2	5	292	0.00	29.925 
17:40	53.9	53.9	53.9	60	40.3	3	7	315	0.00	29.925 
17:45	54.1	54.1	54.1	59	40.1	1	3	292	0.00	29.925 
17:50	54.2	54.2	54.2	56	38.8	3	9	292	0.00	29.925 
17:55	54.1	54.1	54.1	56	38.8	4	9	315	0.00	29.925 
18:00	54.2	54.2	54.2	57	39.3	3	10	315	0.00	29.931 
18:05	54.1	54.1	54.1	55	38.3	3	10	292	0.00	29.931 
18:10	53.8	53.8	53.8	57	38.9	3	8	270	0.00	29.931 
18:15	53.8	53.8	53.8	57	38.9	2	7	270	0.00	29.935 
18:20	53.6	53.6	53.6	58	39.2	4	9	270	0.00	29.935 
18:25	53.5	53.5	53.5	59	39.5	3	6	270	0.00	29.935 
18:30	53.3	53.3	53.3	60	39.8	1	4	292	0.00	29.940 
18:35	53.2	53.2	53.2	61	40.1	2	4	292	0.00	29.940 
18:40	52.9	52.9	52.9	58	38.5	2	6	315	0.00	29.940 
18:45	52.6	52.6	52.6	57	37.8	2	5	270	0.00	29.944 
18:50	52.2	52.2	52.2	58	37.9	2	6	315	0.00	29.944 
18:55	51.9	51.9	51.9	58	37.6	2	7	315	0.00	29.944 
19:00	51.7	51.7	51.7	59	37.8	2	4	292	0.00	29.952 
19:05	51.6	51.6	51.6	58	37.3	3	7	292	0.00	29.952 
19:10	51.4	51.4	51.4	58	37.1	3	6	292	0.00	29.952 
19:15	51.4	51.4	51.4	58	37.1	3	10	292	0.00	29.954 
19:20	51.3	51.3	51.3	59	37.5	2	6	270	0.00	29.954 
19:25	51.1	51.1	51.1	61	38.1	4	10	292	0.00	29.954 
19:30	49.8	48.6	49.8	63	37.7	4	15	292	0.00	29.970 
19:35	48.3	48.3	48.3	65	37.1	1	5	315	0.00	29.970 
19:40	47.6	47.6	47.6	66	36.8	1	3	338	0.00	29.970 
19:45	47.1	47.1	47.1	68	37.1	1	4	292	0.00	29.974 
19:50	46.8	46.8	46.8	70	37.5	0	2	292	0.00	29.974 
19:55	46.7	46.7	46.7	71	37.8	0	1	292	0.00	29.974 
20:00	46.5	46.5	46.5	73	38.3	1	5	270	0.00	29.978 
20:05	46.4	46.4	46.4	75	38.9	1	4	270	0.00	29.978 
20:10	46.4	46.4	46.4	77	39.6	1	3	270	0.00	29.978 
20:15	46.4	46.4	46.4	77	39.6	0	3	270	0.00	29.984 
20:20	46.5	46.5	46.5	77	39.7	0	1	270	0.00	29.984 
20:25	46.5	46.5	46.5	78	40.0	0	1	270	0.00	29.984 
20:30	46.5	46.5	46.5	79	40.3	0	2	270	0.00	29.995 
20:35	46.5	46.5	46.5	78	40.0	1	7	0	0.00	29.995 
20:40	46.2	46.2	46.2	78	39.7	1	5	270	0.00	29.995 
20:45	45.8	45.8	45.8	79	39.7	1	4	315	0.00	30.010 
20:50	45.5	45.5	45.5	80	39.7	1	10	338	0.00	30.010 
20:55	45.1	45.1	45.1	82	39.9	1	9	0	0.00	30.010 
21:00	44.6	44.6	44.6	83	39.8	1	9	0	0.00	30.025 
21:05	44.1	44.1	44.1	83	39.3	1	5	0	0.00	30.025 
21:10	43.5	43.5	43.5	82	38.4	1	7	292	0.00	30.025 
21:15	43.2	43.2	43.2	81	37.8	1	4	338	0.00	30.034 
21:20	42.9	42.9	42.9	81	37.5	1	4	315	0.00	30.034 
21:25	42.9	42.9	42.9	81	37.5	0	2	0	0.00	30.034 
21:30	42.8	42.8	42.8	81	37.4	1	3	292	0.00	30.032 
21:35	42.8	42.8	42.8	81	37.4	0	2	292	0.00	30.032 
21:40	42.8	42.8	42.8	81	37.4	1	2	292	0.00	30.032 
21:45	42.9	42.9	42.9	80	37.2	1	2	315	0.00	30.036 
21:50	43.1	43.1	43.1	80	37.4	0	2	315	0.00	30.036 
21:55	43.1	43.1	43.1	81	37.7	0	1	315	0.00	30.036 
22:00	43.1	43.1	43.1	81	37.7	1	3	315	0.00	30.034 
22:05	42.9	42.9	42.9	81	37.5	0	5	270	0.00	30.034 
22:10	42.9	42.9	42.9	81	37.5	0	3	270	0.00	30.034 
22:15	42.9	42.9	42.9	81	37.5	0	1	270	0.00	30.033 
22:20	42.9	42.9	42.9	82	37.8	0	1	270	0.00	30.033 
22:25	42.9	42.9	42.9	82	37.8	0	2	270	0.00	30.033 
22:30	42.9	42.9	42.9	82	37.8	0	1	270	0.00	30.037 
22:35	42.9	42.9	42.9	82	37.8	1	2	270	0.00	30.037 
22:40	42.9	42.9	42.9	82	37.8	0	2	270	0.00	30.037 
22:45	42.9	42.9	42.9	82	37.8	0	3	292	0.00	30.036 
22:50	42.9	42.9	42.9	82	37.8	0	3	292	0.00	30.036 
22:55	42.9	42.9	42.9	82	37.8	1	5	270	0.00	30.036 
23:00	43.1	43.1	43.1	82	38.0	1	3	338	0.00	30.039 
23:05	43.1	43.1	43.1	82	38.0	0	2	292	0.00	30.039 
23:10	43.1	43.1	43.1	81	37.7	1	3	0	0.00	30.039 
23:15	43.2	43.2	43.2	81	37.8	2	6	292	0.00	30.042 
23:20	43.2	43.2	43.2	81	37.8	1	3	270	0.00	30.042 
23:25	42.5	42.5	42.5	82	37.4	1	4	135	0.00	30.042 
23:30	41.8	41.8	41.8	84	37.3	1	10	135	0.01	30.055 
23:35	41.2	41.2	41.2	84	36.7	0	3	0	0.00	30.055 
23:40	40.9	40.9	40.9	85	36.7	0	3	112	0.00	30.055 
23:45	40.8	40.8	40.8	86	36.9	0	4	270	0.00	30.052 
23:50	40.6	40.6	40.6	87	37.0	1	5	68	0.00	30.052 
23:55	40.6	40.6	40.6	87	37.0	0	3	112	0.00	30.052 

CoCoRaHS
IN-AL-39
A2 Web Hosting
Creative Commons License
GoDaddy
search engine by freefind advanced

loaded 2018-11-13 18:16:45 • last modified 2010-11-18 10:43:29
Privacy PolicyDisclaimer
• wx.awcolley.com is powered by PmWiki v.2002016 •
• all content (unless otherwise noted) © 2018 A W Colley